createdAt,value
2023-03-28T00:04:17.381Z,8.75
2023-03-28T00:09:20.715Z,10.15
2023-03-28T00:14:24.879Z,11.88
2023-03-28T00:19:27.586Z,9.05
2023-03-28T00:24:30.278Z,9.30
2023-03-28T00:29:35.338Z,11.67
2023-03-28T00:34:38.007Z,10.23
2023-03-28T00:39:43.458Z,9.13
2023-03-28T00:44:50.048Z,9.13
2023-03-28T00:49:55.320Z,10.80
2023-03-28T00:54:59.429Z,15.38
2023-03-28T01:00:06.850Z,9.38
2023-03-28T01:05:10.890Z,8.80
2023-03-28T01:10:14.248Z,8.45
2023-03-28T01:15:18.321Z,10.40
2023-03-28T01:20:49.282Z,14.93
2023-03-28T01:26:27.017Z,5.38
2023-03-28T01:31:48.650Z,18.90
2023-03-28T01:37:05.748Z,10.90
2023-03-28T01:42:15.971Z,7.80
2023-03-28T01:47:27.687Z,11.82
2023-03-28T01:52:37.744Z,12.50
2023-03-28T01:57:50.311Z,8.60
2023-03-28T02:02:57.982Z,6.93
2023-03-28T02:08:04.822Z,8.65
2023-03-28T02:13:15.443Z,8.73
2023-03-28T02:18:23.685Z,10.88
2023-03-28T02:23:33.166Z,11.55
2023-03-28T02:28:38.514Z,9.45
2023-03-28T02:33:42.912Z,12.40
2023-03-28T02:38:56.392Z,11.32
2023-03-28T02:44:27.176Z,14.73
2023-03-28T02:49:50.063Z,8.68
2023-03-28T02:55:03.231Z,9.93
2023-03-28T03:00:11.509Z,10.65
2023-03-28T03:05:14.389Z,13.73
2023-03-28T03:10:19.120Z,9.00
2023-03-28T03:15:21.792Z,9.70
2023-03-28T03:20:26.048Z,14.32
2023-03-28T03:25:31.265Z,7.20
2023-03-28T03:30:33.895Z,12.80
2023-03-28T03:35:36.724Z,13.38
2023-03-28T03:40:40.995Z,10.63
2023-03-28T03:45:45.922Z,13.95
2023-03-28T03:50:48.682Z,12.98
2023-03-28T03:55:52.586Z,10.00
2023-03-28T04:00:55.755Z,12.68
2023-03-28T04:05:58.687Z,10.63
2023-03-28T04:11:03.256Z,11.75
2023-03-28T04:16:06.682Z,21.80
2023-03-28T04:21:10.358Z,11.00
2023-03-28T04:31:18.020Z,11.35
2023-03-28T04:36:22.609Z,9.00
2023-03-28T04:41:26.731Z,14.23
2023-03-28T04:46:29.658Z,10.57
2023-03-28T04:51:33.244Z,17.63
2023-03-28T05:01:42.011Z,16.97
2023-03-28T05:06:45.218Z,12.65
2023-03-28T05:11:49.279Z,12.45
2023-03-28T05:16:52.189Z,10.35
2023-03-28T05:21:54.771Z,13.35
2023-03-28T05:26:58.732Z,10.90
2023-03-28T05:32:01.387Z,13.00
2023-03-28T05:37:04.246Z,12.90
2023-03-28T05:42:09.277Z,18.37
2023-03-28T05:47:11.911Z,14.73
2023-03-28T05:52:14.545Z,10.07
2023-03-28T05:57:18.733Z,11.50
2023-03-28T06:02:23.086Z,18.75
2023-03-28T06:07:39.204Z,16.95
2023-03-28T06:12:46.301Z,16.70
2023-03-28T06:17:49.040Z,16.23
2023-03-28T06:22:52.237Z,19.07
2023-03-28T06:27:56.838Z,18.70
2023-03-28T06:32:59.457Z,16.23
2023-03-28T06:38:02.223Z,13.88
2023-03-28T06:43:06.132Z,10.73
2023-03-28T06:48:08.876Z,8.48
2023-03-28T06:53:11.610Z,9.13
2023-03-28T06:58:15.489Z,8.53
2023-03-28T07:03:18.153Z,5.45
2023-03-28T07:08:21.462Z,5.47
2023-03-28T07:13:25.675Z,5.10
2023-03-28T07:18:28.286Z,10.52
2023-03-28T07:23:30.982Z,6.20
2023-03-28T07:28:35.524Z,6.27
2023-03-28T07:33:38.742Z,5.03
2023-03-28T07:38:41.972Z,6.32
2023-03-28T07:43:46.460Z,12.68
2023-03-28T07:48:49.042Z,7.30
2023-03-28T07:53:51.842Z,3.40
2023-03-28T07:58:56.025Z,6.82
2023-03-28T08:03:59.470Z,6.13
2023-03-28T08:09:02.285Z,6.65
2023-03-28T08:14:09.353Z,6.57
2023-03-28T08:19:12.356Z,4.35
2023-03-28T08:24:22.336Z,3.92
2023-03-28T08:29:33.310Z,4.82
2023-03-28T08:34:37.365Z,4.70
2023-03-28T08:39:42.443Z,6.07
2023-03-28T08:44:58.330Z,5.25
2023-03-28T08:50:09.737Z,6.75
2023-03-28T08:55:29.033Z,3.65
2023-03-28T09:00:36.995Z,5.43
2023-03-28T09:05:48.015Z,5.18
2023-03-28T09:10:57.019Z,6.10
2023-03-28T09:16:30.507Z,4.57
2023-03-28T09:21:43.906Z,2.35
2023-03-28T09:26:53.132Z,2.25
2023-03-28T09:32:01.040Z,4.68
2023-03-28T09:37:15.391Z,2.92
2023-03-28T09:42:28.377Z,3.50
2023-03-28T09:47:33.977Z,4.10
2023-03-28T09:52:36.676Z,4.72
2023-03-28T09:58:11.506Z,7.07
2023-03-28T10:03:23.350Z,3.58
2023-03-28T10:08:32.756Z,3.05
2023-03-28T10:13:40.706Z,2.92
2023-03-28T10:18:45.020Z,3.15
2023-03-28T10:23:55.134Z,7.53
2023-03-28T10:29:04.307Z,5.03
2023-03-28T10:34:26.207Z,3.80
2023-03-28T10:39:30.881Z,3.92
2023-03-28T10:44:36.561Z,3.40
2023-03-28T10:49:45.928Z,2.63
2023-03-28T10:55:01.562Z,2.53
2023-03-28T11:00:12.237Z,5.05
2023-03-28T11:05:29.029Z,2.25
2023-03-28T11:10:43.347Z,4.18
2023-03-28T11:15:56.934Z,4.43
2023-03-28T11:21:13.168Z,3.25
2023-03-28T11:26:18.932Z,2.83
2023-03-28T11:31:27.927Z,4.05
2023-03-28T11:36:37.214Z,4.88
2023-03-28T11:41:42.523Z,3.83
2023-03-28T11:46:51.588Z,4.82
2023-03-28T11:52:05.141Z,4.53
2023-03-28T11:57:16.792Z,4.65
2023-03-28T12:02:41.319Z,7.15
2023-03-28T12:07:52.260Z,4.60
2023-03-28T12:13:06.725Z,3.72
2023-03-28T12:18:16.043Z,4.13
2023-03-28T12:23:28.463Z,5.25
2023-03-28T12:28:38.937Z,3.70
2023-03-28T12:33:51.660Z,2.60
2023-03-28T12:38:59.609Z,2.33
2023-03-28T12:44:08.060Z,2.55
2023-03-28T12:49:17.737Z,2.65
2023-03-28T12:54:27.422Z,3.58
2023-03-28T12:59:48.492Z,5.93
2023-03-28T13:05:01.098Z,2.55
2023-03-28T13:10:15.745Z,4.88
2023-03-28T13:15:30.902Z,6.68
2023-03-28T13:20:33.573Z,5.15
2023-03-28T13:25:38.827Z,4.70
2023-03-28T13:30:45.605Z,6.47
2023-03-28T13:36:10.919Z,6.13
2023-03-28T13:41:35.645Z,5.15
2023-03-28T13:46:45.150Z,2.47
2023-03-28T13:51:53.132Z,2.35
2023-03-28T13:57:03.320Z,4.18
2023-03-28T14:02:18.609Z,2.80
2023-03-28T14:07:26.346Z,5.90
2023-03-28T14:12:31.609Z,7.57
2023-03-28T14:17:36.434Z,4.20
2023-03-28T14:22:49.388Z,4.90
2023-03-28T14:28:08.949Z,5.85
2023-03-28T14:33:22.044Z,3.58
2023-03-28T14:38:30.355Z,5.07
2023-03-28T14:43:34.651Z,7.95
2023-03-28T14:48:39.156Z,4.63
2023-03-28T14:53:43.139Z,4.35
2023-03-28T14:58:49.955Z,3.92
2023-03-28T15:03:57.715Z,5.97
2023-03-28T15:09:02.046Z,2.72
2023-03-28T15:14:12.745Z,4.90
2023-03-28T15:19:22.330Z,2.58
2023-03-28T15:24:27.708Z,4.72
2023-03-28T15:29:37.216Z,6.15
2023-03-28T15:40:29.374Z,5.57
2023-03-28T15:45:42.960Z,4.22
2023-03-28T15:50:50.390Z,3.45
2023-03-28T15:55:53.004Z,6.07
2023-03-28T16:00:56.998Z,9.20
2023-03-28T16:06:23.114Z,4.20
2023-03-28T16:11:34.267Z,4.15
2023-03-28T16:16:40.572Z,6.32
2023-03-28T16:21:43.259Z,5.70
2023-03-28T16:26:45.876Z,7.03
2023-03-28T16:31:49.866Z,6.23
2023-03-28T16:36:53.175Z,4.72
2023-03-28T16:41:55.918Z,3.35
2023-03-28T16:46:59.925Z,6.03
2023-03-28T16:52:02.534Z,3.90
2023-03-28T16:57:05.384Z,4.33
2023-03-28T17:02:11.586Z,5.93
2023-03-28T17:07:14.192Z,5.22
2023-03-28T17:12:16.947Z,6.65
2023-03-28T17:17:22.304Z,5.40
2023-03-28T17:22:25.611Z,3.92
2023-03-28T17:27:28.282Z,8.20
2023-03-28T17:32:32.270Z,7.27
2023-03-28T17:37:35.118Z,5.75
2023-03-28T17:42:37.897Z,4.97
2023-03-28T17:47:42.030Z,8.13
2023-03-28T17:52:44.714Z,8.45
2023-03-28T17:57:47.718Z,5.90
2023-03-28T18:02:52.738Z,3.72
2023-03-28T18:07:56.558Z,3.53
2023-03-28T18:12:59.175Z,5.25
2023-03-28T18:18:03.474Z,6.10
2023-03-28T18:23:09.374Z,5.28
2023-03-28T18:28:12.212Z,8.02
2023-03-28T18:33:17.420Z,7.73
2023-03-28T18:38:20.024Z,5.90
2023-03-28T18:43:22.963Z,6.07
2023-03-28T18:48:28.197Z,6.30
2023-03-28T18:53:30.881Z,8.80
2023-03-28T18:58:34.034Z,6.80
2023-03-28T19:03:40.591Z,16.38
2023-03-28T19:08:44.826Z,19.27
2023-03-28T19:13:48.092Z,14.23
2023-03-28T19:18:52.103Z,7.97
2023-03-28T19:23:55.268Z,8.45
2023-03-28T19:28:58.555Z,8.73
2023-03-28T19:34:02.999Z,7.00
2023-03-28T19:39:06.173Z,11.05
2023-03-28T19:44:08.875Z,7.60
2023-03-28T19:49:13.276Z,6.83
2023-03-28T19:54:16.495Z,5.00
2023-03-28T19:59:19.390Z,6.60
2023-03-28T20:04:23.352Z,7.73
2023-03-28T20:09:26.324Z,3.90
2023-03-28T20:14:29.077Z,4.28
2023-03-28T20:19:33.199Z,5.33
2023-03-28T20:24:35.804Z,3.88
2023-03-28T20:29:38.642Z,1.90
2023-03-28T20:34:42.533Z,1.60
2023-03-28T20:39:47.221Z,3.35
2023-03-28T20:44:49.911Z,2.00
2023-03-28T20:49:56.833Z,3.23
2023-03-28T20:54:59.556Z,3.25
2023-03-28T21:00:02.259Z,1.97
2023-03-28T21:05:07.840Z,2.93
2023-03-28T21:10:11.700Z,4.53
2023-03-28T21:15:15.363Z,3.83
2023-03-28T21:20:19.524Z,9.02
2023-03-28T21:25:22.513Z,3.83
2023-03-28T21:30:25.382Z,5.30
2023-03-28T21:35:29.811Z,3.87
2023-03-28T21:40:32.408Z,2.85
2023-03-28T21:45:35.006Z,4.77
2023-03-28T21:50:40.873Z,3.35
2023-03-28T21:55:43.451Z,5.05
2023-03-28T22:00:46.602Z,4.82
2023-03-28T22:05:52.738Z,3.80
2023-03-28T22:10:58.530Z,6.72
2023-03-28T22:16:01.324Z,3.90
2023-03-28T22:21:06.265Z,4.43
2023-03-28T22:26:09.182Z,6.07
2023-03-28T22:31:11.830Z,4.43
2023-03-28T22:36:15.853Z,6.17
2023-03-28T22:41:18.464Z,4.57
2023-03-28T22:46:21.234Z,6.30
2023-03-28T22:51:28.246Z,5.10
2023-03-28T22:56:31.114Z,6.25
2023-03-28T23:01:34.543Z,6.90
2023-03-28T23:06:39.927Z,7.32
2023-03-28T23:11:42.609Z,8.40
2023-03-28T23:16:45.513Z,8.60
2023-03-28T23:21:50.206Z,7.03
2023-03-28T23:26:52.733Z,9.38
2023-03-28T23:31:55.445Z,6.05
2023-03-28T23:37:02.258Z,6.00
2023-03-28T23:42:06.017Z,8.77
2023-03-28T23:47:09.109Z,6.30
2023-03-28T23:52:13.407Z,6.03
2023-03-28T23:57:16.049Z,7.18
